createdAt,value
2018-01-29T00:02:22.966Z,6.97
2018-01-29T00:04:50.894Z,7.35
2018-01-29T00:07:18.957Z,6.10
2018-01-29T00:09:46.546Z,7.78
2018-01-29T00:12:14.191Z,6.25
2018-01-29T00:14:41.800Z,8.15
2018-01-29T00:17:11.770Z,9.73
2018-01-29T00:19:41.010Z,5.90
2018-01-29T00:22:08.676Z,11.20
2018-01-29T00:24:37.020Z,7.55
2018-01-29T00:27:04.608Z,4.57
2018-01-29T00:29:32.310Z,7.07
2018-01-29T00:32:01.061Z,10.93
2018-01-29T00:34:29.390Z,9.43
2018-01-29T00:36:57.071Z,7.68
2018-01-29T00:39:24.674Z,7.55
2018-01-29T00:41:52.251Z,10.38
2018-01-29T00:44:20.063Z,11.73
2018-01-29T00:46:47.601Z,9.13
2018-01-29T00:49:15.164Z,11.30
2018-01-29T00:51:42.678Z,9.25
2018-01-29T00:54:10.153Z,10.65
2018-01-29T00:56:38.533Z,7.85
2018-01-29T00:59:06.971Z,9.15
2018-01-29T01:01:35.323Z,14.18
2018-01-29T01:04:03.021Z,15.63
2018-01-29T01:06:31.392Z,8.45
2018-01-29T01:08:59.023Z,9.60
2018-01-29T01:11:26.560Z,11.63
2018-01-29T01:13:54.156Z,8.75
2018-01-29T01:16:21.654Z,11.05
2018-01-29T01:18:49.191Z,9.07
2018-01-29T01:21:16.852Z,9.43
2018-01-29T01:23:44.488Z,12.13
2018-01-29T01:26:12.046Z,13.32
2018-01-29T01:28:39.608Z,8.50
2018-01-29T01:31:07.385Z,7.90
2018-01-29T01:33:35.732Z,6.47
2018-01-29T01:36:03.339Z,10.68
2018-01-29T01:38:30.910Z,7.18
2018-01-29T01:40:59.249Z,7.70
2018-01-29T01:43:27.551Z,6.65
2018-01-29T01:45:55.148Z,9.25
2018-01-29T01:48:23.490Z,6.82
2018-01-29T01:50:50.983Z,10.70
2018-01-29T01:53:19.427Z,5.85
2018-01-29T01:55:46.967Z,9.43
2018-01-29T01:58:14.459Z,7.70
2018-01-29T02:00:42.085Z,8.45
2018-01-29T02:03:09.579Z,8.80
2018-01-29T02:05:37.233Z,9.25
2018-01-29T02:08:04.781Z,5.32
2018-01-29T02:10:32.346Z,12.25
2018-01-29T02:12:59.994Z,11.43
2018-01-29T02:15:27.541Z,10.90
2018-01-29T02:17:55.114Z,8.15
2018-01-29T02:20:22.638Z,9.25
2018-01-29T02:22:50.908Z,7.18
2018-01-29T02:25:18.515Z,10.52
2018-01-29T02:27:46.174Z,9.88
2018-01-29T02:30:13.811Z,7.53
2018-01-29T02:32:41.357Z,10.73
2018-01-29T02:35:08.862Z,11.35
2018-01-29T02:37:36.478Z,9.60
2018-01-29T02:40:04.051Z,12.60
2018-01-29T02:42:31.634Z,7.95
2018-01-29T02:44:59.125Z,9.95
2018-01-29T02:47:26.640Z,7.28
2018-01-29T02:49:54.165Z,6.68
2018-01-29T02:52:21.665Z,8.07
2018-01-29T02:54:49.199Z,11.80
2018-01-29T02:57:16.697Z,7.25
2018-01-29T02:59:44.198Z,14.18
2018-01-29T03:02:12.566Z,8.60
2018-01-29T03:04:40.179Z,10.60
2018-01-29T03:07:07.870Z,8.38
2018-01-29T03:09:35.450Z,7.75
2018-01-29T03:12:02.938Z,10.07
2018-01-29T03:14:30.585Z,14.02
2018-01-29T03:16:58.978Z,11.15
2018-01-29T03:19:26.478Z,10.73
2018-01-29T03:21:54.021Z,6.75
2018-01-29T03:24:21.650Z,6.35
2018-01-29T03:26:49.141Z,8.45
2018-01-29T03:29:17.018Z,7.20
2018-01-29T03:31:44.646Z,9.48
2018-01-29T03:34:12.166Z,4.70
2018-01-29T03:36:39.869Z,8.73
2018-01-29T03:39:07.414Z,14.25
2018-01-29T03:41:34.889Z,9.93
2018-01-29T03:44:02.393Z,10.05
2018-01-29T03:46:29.889Z,6.05
2018-01-29T03:48:57.386Z,8.68
2018-01-29T03:51:24.881Z,6.97
2018-01-29T03:53:52.365Z,12.67
2018-01-29T03:56:19.858Z,7.00
2018-01-29T03:58:47.386Z,13.62
2018-01-29T04:01:14.877Z,5.95
2018-01-29T04:03:42.361Z,8.82
2018-01-29T04:06:09.870Z,7.57
2018-01-29T04:08:37.366Z,9.40
2018-01-29T04:11:04.857Z,8.65
2018-01-29T04:13:33.149Z,9.20
2018-01-29T04:16:00.642Z,9.77
2018-01-29T04:18:28.132Z,11.12
2018-01-29T04:20:55.625Z,10.65
2018-01-29T04:23:23.198Z,10.57
2018-01-29T04:25:50.701Z,5.85
2018-01-29T04:28:18.266Z,11.05
2018-01-29T04:30:45.876Z,7.30
2018-01-29T04:33:13.390Z,16.85
2018-01-29T04:35:40.918Z,7.20
2018-01-29T04:38:08.401Z,4.57
2018-01-29T04:40:35.973Z,8.63
2018-01-29T04:43:03.562Z,10.27
2018-01-29T04:45:31.087Z,6.90
2018-01-29T04:47:58.698Z,4.03
2018-01-29T04:50:26.238Z,11.05
2018-01-29T04:52:53.741Z,6.55
2018-01-29T04:55:21.280Z,6.45
2018-01-29T04:57:48.781Z,10.70
2018-01-29T05:00:16.354Z,8.57
2018-01-29T05:02:44.800Z,11.70
2018-01-29T05:05:12.321Z,11.73
2018-01-29T05:07:39.813Z,7.32
2018-01-29T05:10:07.298Z,17.35
2018-01-29T05:12:34.791Z,11.23
2018-01-29T05:15:02.354Z,12.07
2018-01-29T05:17:29.910Z,6.95
2018-01-29T05:19:58.182Z,11.93
2018-01-29T05:22:25.667Z,7.95
2018-01-29T05:24:53.165Z,6.40
2018-01-29T05:27:20.657Z,4.82
2018-01-29T05:29:48.934Z,12.68
2018-01-29T05:32:17.227Z,7.85
2018-01-29T05:34:44.714Z,7.78
2018-01-29T05:37:16.090Z,10.20
2018-01-29T05:39:43.582Z,9.35
2018-01-29T05:42:11.967Z,4.32
2018-01-29T05:44:39.519Z,9.95
2018-01-29T05:47:07.784Z,4.90
2018-01-29T05:49:36.146Z,6.18
2018-01-29T05:52:03.645Z,8.13
2018-01-29T05:54:31.239Z,8.98
2018-01-29T05:56:59.579Z,4.50
2018-01-29T05:59:27.089Z,10.55
2018-01-29T06:01:54.628Z,6.90
2018-01-29T06:04:22.110Z,4.90
2018-01-29T06:06:49.614Z,4.30
2018-01-29T06:09:17.466Z,3.55
2018-01-29T06:11:45.184Z,4.10
2018-01-29T06:14:13.723Z,2.85
2018-01-29T06:16:41.597Z,5.40
2018-01-29T06:19:09.707Z,5.70
2018-01-29T06:21:37.222Z,6.97
2018-01-29T06:24:05.646Z,6.32
2018-01-29T06:26:33.145Z,4.35
2018-01-29T06:29:00.789Z,3.30
2018-01-29T06:31:29.177Z,3.05
2018-01-29T06:33:56.832Z,4.12
2018-01-29T06:36:24.735Z,4.60
2018-01-29T06:38:52.290Z,3.85
2018-01-29T06:41:20.699Z,4.93
2018-01-29T06:43:48.224Z,6.00
2018-01-29T06:46:16.615Z,4.55
2018-01-29T06:48:44.962Z,2.97
2018-01-29T06:51:12.611Z,4.53
2018-01-29T06:53:43.332Z,1.60
2018-01-29T06:56:11.143Z,2.70
2018-01-29T06:58:38.774Z,1.90
2018-01-29T07:01:06.274Z,2.87
2018-01-29T07:03:33.887Z,2.75
2018-01-29T07:06:01.592Z,1.60
2018-01-29T07:08:29.872Z,2.45
2018-01-29T07:10:58.138Z,3.47
2018-01-29T07:13:25.694Z,4.12
2018-01-29T07:15:53.382Z,5.40
2018-01-29T07:18:21.028Z,3.67
2018-01-29T07:20:49.458Z,2.78
2018-01-29T07:23:17.017Z,2.35
2018-01-29T07:25:44.547Z,4.65
2018-01-29T07:28:12.165Z,7.18
2018-01-29T07:30:39.864Z,3.85
2018-01-29T07:33:08.319Z,3.65
2018-01-29T07:35:35.959Z,3.47
2018-01-29T07:38:03.541Z,1.67
2018-01-29T07:40:31.822Z,2.65
2018-01-29T07:43:00.189Z,4.72
2018-01-29T07:45:28.533Z,1.73
2018-01-29T07:47:56.067Z,4.28
2018-01-29T07:50:23.570Z,1.58
2018-01-29T07:52:51.219Z,3.25
2018-01-29T07:55:18.744Z,1.80
2018-01-29T07:57:46.354Z,2.42
2018-01-29T08:00:13.900Z,2.60
2018-01-29T08:02:41.465Z,3.08
2018-01-29T08:05:09.055Z,2.40
2018-01-29T08:07:36.638Z,1.77
2018-01-29T08:10:04.251Z,3.97
2018-01-29T08:12:31.761Z,2.85
2018-01-29T08:15:00.122Z,3.47
2018-01-29T08:17:28.661Z,2.65
2018-01-29T08:19:56.323Z,9.00
2018-01-29T08:22:23.881Z,2.37
2018-01-29T08:24:51.476Z,4.55
2018-01-29T08:27:19.887Z,2.85
2018-01-29T08:29:47.484Z,4.05
2018-01-29T08:32:15.054Z,5.20
2018-01-29T08:34:42.652Z,3.00
2018-01-29T08:37:10.966Z,5.20
2018-01-29T08:39:38.466Z,5.40
2018-01-29T08:42:06.081Z,3.85
2018-01-29T08:44:33.770Z,8.57
2018-01-29T08:47:01.309Z,3.00
2018-01-29T08:52:02.874Z,7.07
2018-01-29T08:54:30.720Z,4.90
2018-01-29T08:56:58.246Z,3.42
2018-01-29T08:59:25.841Z,5.28
2018-01-29T09:01:53.503Z,5.90
2018-01-29T09:04:21.759Z,4.55
2018-01-29T09:06:49.743Z,1.95
2018-01-29T09:09:18.219Z,13.00
2018-01-29T09:11:45.752Z,7.78
2018-01-29T09:14:13.267Z,3.92
2018-01-29T09:16:41.156Z,4.20
2018-01-29T09:19:08.682Z,8.15
2018-01-29T09:21:37.326Z,6.10
2018-01-29T09:24:04.890Z,5.30
2018-01-29T09:26:32.437Z,4.60
2018-01-29T09:29:00.045Z,3.95
2018-01-29T09:31:28.449Z,5.70
2018-01-29T09:33:56.131Z,4.20
2018-01-29T09:36:23.997Z,5.43
2018-01-29T09:38:51.682Z,7.18
2018-01-29T09:41:19.317Z,3.92
2018-01-29T09:43:46.868Z,6.65
2018-01-29T09:46:14.518Z,4.93
2018-01-29T09:48:42.023Z,5.53
2018-01-29T09:51:09.583Z,6.87
2018-01-29T09:53:37.214Z,4.37
2018-01-29T09:56:04.967Z,6.60
2018-01-29T09:58:32.539Z,5.28
2018-01-29T10:01:00.059Z,5.18
2018-01-29T10:03:27.676Z,8.30
2018-01-29T10:05:55.310Z,9.27
2018-01-29T10:08:22.888Z,5.07
2018-01-29T10:10:50.410Z,9.60
2018-01-29T10:13:18.730Z,5.55
2018-01-29T10:15:46.253Z,8.60
2018-01-29T10:18:14.062Z,5.33
2018-01-29T10:20:42.481Z,12.68
2018-01-29T10:23:10.737Z,7.28
2018-01-29T10:25:38.586Z,11.25
2018-01-29T10:28:06.086Z,5.32
2018-01-29T10:30:33.585Z,8.82
2018-01-29T10:33:01.187Z,5.90
2018-01-29T10:35:28.982Z,10.77
2018-01-29T10:37:56.581Z,7.62
2018-01-29T10:40:24.082Z,12.57
2018-01-29T10:42:52.367Z,8.02
2018-01-29T10:45:20.658Z,7.63
2018-01-29T10:47:48.177Z,7.33
2018-01-29T10:50:15.818Z,5.55
2018-01-29T10:52:43.460Z,5.70
2018-01-29T10:55:11.016Z,13.60
2018-01-29T10:57:39.008Z,5.28
2018-01-29T11:00:06.846Z,8.75
2018-01-29T11:02:34.810Z,5.40
2018-01-29T11:05:02.314Z,12.25
2018-01-29T11:07:31.538Z,8.52
2018-01-29T11:09:59.089Z,6.45
2018-01-29T11:12:26.730Z,10.38
2018-01-29T11:14:54.285Z,7.40
2018-01-29T11:17:22.068Z,5.50
2018-01-29T11:19:49.660Z,8.88
2018-01-29T11:22:18.662Z,7.60
2018-01-29T11:24:46.194Z,10.45
2018-01-29T11:27:13.685Z,13.40
2018-01-29T11:29:41.269Z,14.50
2018-01-29T11:32:08.782Z,8.70
2018-01-29T11:34:36.261Z,9.20
2018-01-29T11:37:03.875Z,10.13
2018-01-29T11:39:31.388Z,4.93
2018-01-29T11:41:59.556Z,7.87
2018-01-29T11:44:27.306Z,11.50
2018-01-29T11:46:55.570Z,9.57
2018-01-29T11:49:23.534Z,10.27
2018-01-29T11:51:51.090Z,13.65
2018-01-29T11:54:18.629Z,7.27
2018-01-29T11:56:46.130Z,11.65
2018-01-29T11:59:14.435Z,11.83
2018-01-29T12:01:41.995Z,12.50
2018-01-29T12:04:09.842Z,9.93
2018-01-29T12:06:37.338Z,5.18
2018-01-29T12:09:05.299Z,12.83
2018-01-29T12:11:32.805Z,8.87
2018-01-29T12:14:01.254Z,8.93
2018-01-29T12:16:28.811Z,4.77
2018-01-29T12:18:56.465Z,9.03
2018-01-29T12:21:24.347Z,6.33
2018-01-29T12:23:52.010Z,5.28
2018-01-29T12:26:19.745Z,7.80
2018-01-29T12:28:47.263Z,15.73
2018-01-29T12:31:14.825Z,10.45
2018-01-29T12:33:43.547Z,13.83
2018-01-29T12:36:11.175Z,15.00
2018-01-29T12:38:38.682Z,9.45
2018-01-29T12:41:07.458Z,10.98
2018-01-29T12:43:34.950Z,13.57
2018-01-29T12:46:02.606Z,10.20
2018-01-29T12:48:30.194Z,12.35
2018-01-29T12:50:58.690Z,11.27
2018-01-29T12:53:27.215Z,9.75
2018-01-29T12:55:54.776Z,7.43
2018-01-29T12:58:22.274Z,8.65
2018-01-29T13:00:49.879Z,9.57
2018-01-29T13:03:17.468Z,8.80
2018-01-29T13:05:45.362Z,11.00
2018-01-29T13:08:13.798Z,9.07
2018-01-29T13:10:41.654Z,13.05
2018-01-29T13:13:09.202Z,7.57
2018-01-29T13:15:36.749Z,4.62
2018-01-29T13:18:04.606Z,11.35
2018-01-29T13:20:32.870Z,9.02
2018-01-29T13:23:01.933Z,8.68
2018-01-29T13:25:29.424Z,9.27
2018-01-29T13:27:58.075Z,7.85
2018-01-29T13:30:25.574Z,6.28
2018-01-29T13:32:53.992Z,8.20
2018-01-29T13:35:22.319Z,5.78
2018-01-29T13:37:50.136Z,7.30
2018-01-29T13:40:17.718Z,7.05
2018-01-29T13:42:46.035Z,5.30
2018-01-29T13:45:13.774Z,7.60
2018-01-29T13:47:41.291Z,6.78
2018-01-29T13:50:08.966Z,5.95
2018-01-29T13:52:36.512Z,10.32
2018-01-29T13:55:07.966Z,11.12
2018-01-29T13:57:35.894Z,6.18
2018-01-29T14:00:04.177Z,3.95
2018-01-29T14:02:31.907Z,4.30
2018-01-29T14:05:03.953Z,5.95
2018-01-29T14:07:31.506Z,3.97
2018-01-29T14:09:59.010Z,3.83
2018-01-29T14:12:27.289Z,3.55
2018-01-29T14:14:56.325Z,4.53
2018-01-29T14:17:23.822Z,5.35
2018-01-29T14:19:51.480Z,2.80
2018-01-29T14:22:19.858Z,4.60
2018-01-29T14:24:47.451Z,2.00
2018-01-29T14:27:15.307Z,3.08
2018-01-29T14:29:43.178Z,1.80
2018-01-29T14:32:12.289Z,3.45
2018-01-29T14:34:39.939Z,2.67
2018-01-29T14:37:07.811Z,3.97
2018-01-29T14:39:35.361Z,5.80
2018-01-29T14:42:04.254Z,4.40
2018-01-29T14:44:32.750Z,4.73
2018-01-29T14:47:01.379Z,6.83
2018-01-29T14:49:28.894Z,3.47
2018-01-29T14:51:56.442Z,2.33
2018-01-29T14:54:24.738Z,2.72
2018-01-29T14:56:52.258Z,8.70
2018-01-29T14:59:20.649Z,4.90
2018-01-29T15:01:48.918Z,4.82
2018-01-29T15:04:17.198Z,3.83
2018-01-29T15:06:45.470Z,12.90
2018-01-29T15:09:12.958Z,4.37
2018-01-29T15:11:40.612Z,5.32
2018-01-29T15:14:08.150Z,13.30
2018-01-29T15:16:36.405Z,3.22
2018-01-29T15:19:04.250Z,2.93
2018-01-29T15:21:32.261Z,5.05
2018-01-29T15:23:59.867Z,3.83
2018-01-29T15:26:29.153Z,3.30
2018-01-29T15:28:56.724Z,4.03
2018-01-29T15:31:24.305Z,7.62
2018-01-29T15:33:51.929Z,10.50
2018-01-29T15:36:19.509Z,8.17
2018-01-29T15:38:46.998Z,6.93
2018-01-29T15:41:14.521Z,3.73
2018-01-29T15:43:42.033Z,4.95
2018-01-29T15:46:09.527Z,3.43
2018-01-29T15:48:37.182Z,4.27
2018-01-29T15:51:04.678Z,8.53
2018-01-29T15:53:32.551Z,3.78
2018-01-29T15:56:00.118Z,4.03
2018-01-29T15:58:27.720Z,2.10
2018-01-29T16:00:55.691Z,5.25
2018-01-29T16:03:24.050Z,3.80
2018-01-29T16:05:52.425Z,6.55
2018-01-29T16:08:19.997Z,3.53
2018-01-29T16:10:48.847Z,4.60
2018-01-29T16:13:17.214Z,6.57
2018-01-29T16:15:45.123Z,6.45
2018-01-29T16:18:12.959Z,7.70
2018-01-29T16:20:41.028Z,10.32
2018-01-29T16:23:08.616Z,8.23
2018-01-29T16:25:36.501Z,7.07
2018-01-29T16:28:04.674Z,6.53
2018-01-29T16:30:32.442Z,8.30
2018-01-29T16:33:01.121Z,5.72
2018-01-29T16:35:29.537Z,8.90
2018-01-29T16:37:57.438Z,11.18
2018-01-29T16:40:25.338Z,10.95
2018-01-29T16:42:53.251Z,14.38
2018-01-29T16:45:20.965Z,8.32
2018-01-29T16:47:48.714Z,6.87
2018-01-29T16:50:17.972Z,7.87
2018-01-29T16:52:45.596Z,7.20
2018-01-29T16:55:13.975Z,19.87
2018-01-29T16:57:42.572Z,7.07
2018-01-29T17:00:11.976Z,12.73
2018-01-29T17:02:40.372Z,17.05
2018-01-29T17:05:09.990Z,7.37
2018-01-29T17:07:37.606Z,18.25
2018-01-29T17:10:05.915Z,6.60
2018-01-29T17:12:34.569Z,11.10
2018-01-29T17:15:02.684Z,22.17
2018-01-29T17:17:31.807Z,13.70
2018-01-29T17:19:59.737Z,11.40
2018-01-29T17:22:27.242Z,11.27
2018-01-29T17:24:54.785Z,14.85
2018-01-29T17:27:22.642Z,11.20
2018-01-29T17:29:50.429Z,11.25
2018-01-29T17:32:17.915Z,10.57
2018-01-29T17:34:45.579Z,9.88
2018-01-29T17:37:13.153Z,12.32
2018-01-29T17:39:40.653Z,12.60
2018-01-29T17:42:08.214Z,12.18
2018-01-29T17:44:35.835Z,13.05
2018-01-29T17:47:03.482Z,16.20
2018-01-29T17:49:31.860Z,13.13
2018-01-29T17:51:59.538Z,13.00
2018-01-29T17:54:28.340Z,15.40
2018-01-29T17:56:55.883Z,9.38
2018-01-29T17:59:23.483Z,13.07
2018-01-29T18:01:51.101Z,8.88
2018-01-29T18:04:19.320Z,21.20
2018-01-29T18:06:46.945Z,17.15
2018-01-29T18:09:14.525Z,15.40
2018-01-29T18:11:42.252Z,13.85
2018-01-29T18:14:10.457Z,13.48
2018-01-29T18:16:38.058Z,15.43
2018-01-29T18:19:05.758Z,18.30
2018-01-29T18:21:33.639Z,14.60
2018-01-29T18:24:01.374Z,26.17
2018-01-29T18:26:29.885Z,18.90
2018-01-29T18:28:57.553Z,18.62
2018-01-29T18:31:25.212Z,17.00
2018-01-29T18:33:52.778Z,20.42
2018-01-29T18:36:20.521Z,16.40
2018-01-29T18:38:48.256Z,14.35
2018-01-29T18:41:15.872Z,15.98
2018-01-29T18:43:43.875Z,13.90
2018-01-29T18:46:11.705Z,17.00
2018-01-29T18:48:39.284Z,13.20
2018-01-29T18:51:06.882Z,18.92
2018-01-29T18:53:35.299Z,16.80
2018-01-29T18:56:02.980Z,15.98
2018-01-29T18:58:31.052Z,20.25
2018-01-29T19:00:59.810Z,18.42
2018-01-29T19:03:28.923Z,21.15
2018-01-29T19:05:56.928Z,17.52
2018-01-29T19:08:25.558Z,7.87
2018-01-29T19:10:54.553Z,4.53
2018-01-29T19:13:22.085Z,4.20
2018-01-29T19:15:49.660Z,4.32
2018-01-29T19:18:17.154Z,5.10
2018-01-29T19:20:44.666Z,4.18
2018-01-29T19:23:12.336Z,4.80
2018-01-29T19:25:41.658Z,6.20
2018-01-29T19:28:09.385Z,7.60
2018-01-29T19:30:37.415Z,4.05
2018-01-29T19:33:05.032Z,8.48
2018-01-29T19:35:32.705Z,5.25
2018-01-29T19:38:00.358Z,6.30
2018-01-29T19:40:28.898Z,6.05
2018-01-29T19:42:56.476Z,5.10
2018-01-29T19:45:24.049Z,6.22
2018-01-29T19:47:52.319Z,10.02
2018-01-29T19:50:20.700Z,10.23
2018-01-29T19:52:48.520Z,7.78
2018-01-29T19:55:17.684Z,9.95
2018-01-29T19:57:46.752Z,6.15
2018-01-29T20:00:14.434Z,8.20
2018-01-29T20:02:42.858Z,7.43
2018-01-29T20:05:10.830Z,8.23
2018-01-29T20:07:38.477Z,8.95
2018-01-29T20:10:07.050Z,11.50
2018-01-29T20:12:34.622Z,10.13
2018-01-29T20:15:03.823Z,9.00
2018-01-29T20:17:32.446Z,16.87
2018-01-29T20:19:59.933Z,16.02
2018-01-29T20:22:28.263Z,13.40
2018-01-29T20:24:55.827Z,14.65
2018-01-29T20:27:24.326Z,17.80
2018-01-29T20:29:53.237Z,15.05
2018-01-29T20:32:20.945Z,18.20
2018-01-29T20:34:50.546Z,21.27
2018-01-29T20:37:18.058Z,13.73
2018-01-29T20:39:47.969Z,17.90
2018-01-29T20:42:15.540Z,13.93
2018-01-29T20:44:43.879Z,14.00
2018-01-29T20:47:14.549Z,15.43
2018-01-29T20:49:42.211Z,20.33
2018-01-29T20:52:11.756Z,15.68
2018-01-29T20:54:42.588Z,23.73
2018-01-29T20:57:14.164Z,16.10
2018-01-29T20:59:44.059Z,16.48
2018-01-29T21:02:13.007Z,14.77
2018-01-29T21:04:42.770Z,14.63
2018-01-29T21:07:14.037Z,16.37
2018-01-29T21:09:42.428Z,17.77
2018-01-29T21:12:15.558Z,13.80
2018-01-29T21:14:45.086Z,18.65
2018-01-29T21:17:17.203Z,12.50
2018-01-29T21:19:45.086Z,23.25
2018-01-29T21:22:12.812Z,19.55
2018-01-29T21:24:40.455Z,18.77
2018-01-29T21:27:08.863Z,20.52
2018-01-29T21:29:37.427Z,15.25
2018-01-29T21:32:05.803Z,18.37
2018-01-29T21:34:33.359Z,15.50
2018-01-29T21:37:02.229Z,14.85
2018-01-29T21:39:29.920Z,18.23
2018-01-29T21:41:57.511Z,17.67
2018-01-29T21:44:25.830Z,15.48
2018-01-29T21:46:54.473Z,16.35
2018-01-29T21:49:22.059Z,18.55
2018-01-29T21:51:49.651Z,20.95
2018-01-29T21:54:17.927Z,21.23
2018-01-29T21:56:50.972Z,15.95
2018-01-29T21:59:20.297Z,20.10
2018-01-29T22:01:48.547Z,21.67
2018-01-29T22:04:16.133Z,15.52
2018-01-29T22:06:45.096Z,21.33
2018-01-29T22:09:13.122Z,14.23
2018-01-29T22:11:42.019Z,19.58
2018-01-29T22:14:10.241Z,15.27
2018-01-29T22:16:41.803Z,17.30
2018-01-29T22:19:10.074Z,18.75
2018-01-29T22:21:39.006Z,14.95
2018-01-29T22:24:07.526Z,19.75
2018-01-29T22:26:36.365Z,17.45
2018-01-29T22:29:04.824Z,15.00
2018-01-29T22:31:34.120Z,12.40
2018-01-29T22:34:01.758Z,16.77
2018-01-29T22:36:31.684Z,15.40
2018-01-29T22:38:59.246Z,14.60
2018-01-29T22:41:26.977Z,14.70
2018-01-29T22:43:54.630Z,17.48
2018-01-29T22:46:22.248Z,10.32
2018-01-29T22:48:50.062Z,11.12
2018-01-29T22:51:17.801Z,10.65
2018-01-29T22:53:45.428Z,13.60
2018-01-29T22:56:13.158Z,11.68
2018-01-29T22:58:41.019Z,16.85
2018-01-29T23:01:08.686Z,11.95
2018-01-29T23:03:36.398Z,18.50
2018-01-29T23:06:03.871Z,14.85
2018-01-29T23:08:31.434Z,12.40
2018-01-29T23:10:59.157Z,12.37
2018-01-29T23:13:27.401Z,16.92
2018-01-29T23:15:56.767Z,16.08
2018-01-29T23:18:25.998Z,13.27
2018-01-29T23:20:53.593Z,18.62
2018-01-29T23:23:21.089Z,13.60
2018-01-29T23:25:49.691Z,10.30
2018-01-29T23:28:19.231Z,17.17
2018-01-29T23:30:47.178Z,11.68
2018-01-29T23:33:22.564Z,14.35
2018-01-29T23:35:50.944Z,13.23
2018-01-29T23:38:23.226Z,12.02
2018-01-29T23:40:50.777Z,9.52
2018-01-29T23:43:18.274Z,13.27
2018-01-29T23:45:46.164Z,15.73
2018-01-29T23:48:14.434Z,10.57
2018-01-29T23:50:43.428Z,20.85
2018-01-29T23:53:11.764Z,11.43
2018-01-29T23:55:39.289Z,10.50
2018-01-29T23:58:08.181Z,8.10
